Time;durP1;ratioP1;P1;durP2;ratioP2;P2;SDS_P1;SDS_P2;PMS_P1;PMS_P2;Temp;Humidity;BMP_temperature;BMP_pressure;BME280_temperature;BME280_humidity;BME280_pressure;Samples;Min_cycle;Max_cycle;Signal;HPM_P1;HPM_P2
2021/12/03 00:02:17;;;;;;;7.53;2.83;;;0.10;99.90;;;;;;4973912;28;20475;-64
2021/12/03 00:04:43;;;;;;;5.10;2.20;;;0.10;99.90;;;;;;4972450;28;20447;-63
2021/12/03 00:07:08;;;;;;;4.20;2.40;;;0.10;99.90;;;;;;4972185;28;20951;-63
2021/12/03 00:09:36;;;;;;;4.83;2.13;;;0.10;99.90;;;;;;4979704;28;20195;-63
2021/12/03 00:12:04;;;;;;;5.00;2.47;;;0.10;99.90;;;;;;4970761;28;20574;-63
2021/12/03 00:14:29;;;;;;;3.73;2.23;;;0.10;99.90;;;;;;4975386;28;20428;-64
2021/12/03 00:16:55;;;;;;;4.07;1.90;;;0.10;99.90;;;;;;4970468;28;20466;-63
2021/12/03 00:19:21;;;;;;;4.20;1.83;;;0.10;99.90;;;;;;4975470;28;20184;-63
2021/12/03 00:21:47;;;;;;;4.83;2.67;;;0.10;99.90;;;;;;4970011;28;20199;-64
2021/12/03 00:24:13;;;;;;;4.47;2.37;;;0.20;99.90;;;;;;4987277;28;21182;-64
2021/12/03 00:26:39;;;;;;;5.53;2.83;;;0.10;99.90;;;;;;4983704;28;20709;-63
2021/12/03 00:29:05;;;;;;;4.17;1.80;;;0.10;99.90;;;;;;4971556;28;20835;-64
2021/12/03 00:31:31;;;;;;;6.53;2.87;;;0.10;99.90;;;;;;4974632;28;20812;-64
2021/12/03 00:33:56;;;;;;;4.40;1.97;;;0.10;99.90;;;;;;4970815;28;20420;-63
2021/12/03 00:36:23;;;;;;;7.10;2.10;;;0.20;99.90;;;;;;4973282;28;20207;-64
2021/12/03 00:38:53;;;;;;;3.70;2.70;;;0.10;99.90;;;;;;4983252;28;20287;-64
2021/12/03 00:41:20;;;;;;;3.33;1.93;;;0.20;99.90;;;;;;4975705;28;20432;-64
2021/12/03 00:43:48;;;;;;;3.97;2.20;;;0.10;99.90;;;;;;4976488;28;20416;-63
2021/12/03 00:46:16;;;;;;;4.53;2.60;;;0.20;99.90;;;;;;4969767;28;20450;-64
2021/12/03 00:48:44;;;;;;;4.83;1.70;;;0.20;99.90;;;;;;4969886;28;20900;-64
2021/12/03 00:51:12;;;;;;;6.37;2.73;;;0.20;99.90;;;;;;4970465;28;20554;-63
2021/12/03 00:53:38;;;;;;;6.00;2.60;;;0.30;99.90;;;;;;4969904;28;20459;-63
2021/12/03 00:56:06;;;;;;;4.10;2.00;;;0.30;99.90;;;;;;4982539;28;20505;-64
2021/12/03 00:58:32;;;;;;;7.60;2.83;;;0.30;99.90;;;;;;4975615;28;20443;-63
2021/12/03 01:00:58;;;;;;;4.03;1.90;;;0.30;99.90;;;;;;4976338;28;20458;-64
2021/12/03 01:03:24;;;;;;;3.80;2.00;;;0.40;99.90;;;;;;4973621;28;20275;-64
2021/12/03 01:05:50;;;;;;;4.90;3.03;;;0.30;99.90;;;;;;4971388;28;20530;-64
2021/12/03 01:08:15;;;;;;;5.33;2.30;;;0.30;99.90;;;;;;4976017;28;20189;-63
2021/12/03 01:10:42;;;;;;;8.10;2.80;;;0.30;99.90;;;;;;4984400;28;20271;-64
2021/12/03 01:13:08;;;;;;;7.70;2.77;;;0.30;99.90;;;;;;4983333;28;20432;-63
2021/12/03 01:15:36;;;;;;;6.40;3.13;;;0.30;99.90;;;;;;4986253;28;20220;-64
2021/12/03 01:18:03;;;;;;;7.63;2.53;;;0.30;99.90;;;;;;4980975;28;20185;-64
2021/12/03 01:20:30;;;;;;;4.60;2.37;;;0.30;99.90;;;;;;4969725;28;20427;-64
2021/12/03 01:22:57;;;;;;;8.40;2.50;;;0.30;99.90;;;;;;4974911;28;20844;-64
2021/12/03 01:25:24;;;;;;;6.60;2.53;;;0.30;99.90;;;;;;4984528;28;20449;-64
2021/12/03 01:27:50;;;;;;;3.33;2.33;;;0.40;99.90;;;;;;4975540;28;20419;-64
2021/12/03 01:30:19;;;;;;;5.30;2.40;;;0.40;99.90;;;;;;4977803;28;20509;-64
2021/12/03 01:32:46;;;;;;;4.23;2.37;;;0.40;99.90;;;;;;4976424;28;20450;-64
2021/12/03 01:35:13;;;;;;;4.10;2.37;;;0.30;99.90;;;;;;4973337;28;20498;-64
2021/12/03 01:37:40;;;;;;;3.10;1.83;;;0.40;99.90;;;;;;4977928;28;20500;-64
2021/12/03 01:40:09;;;;;;;8.00;2.80;;;0.30;99.90;;;;;;4976971;28;20427;-64
2021/12/03 01:42:35;;;;;;;6.77;2.80;;;0.30;99.90;;;;;;4968808;28;20901;-64
2021/12/03 01:45:01;;;;;;;6.80;2.77;;;0.30;99.90;;;;;;4969010;28;20435;-64
2021/12/03 01:47:27;;;;;;;6.47;2.97;;;0.30;99.90;;;;;;4968931;28;21099;-64
2021/12/03 01:49:52;;;;;;;7.90;2.60;;;0.30;99.90;;;;;;4969481;28;20466;-64
2021/12/03 01:52:18;;;;;;;7.70;3.97;;;0.30;99.90;;;;;;4974155;28;20270;-64
2021/12/03 01:54:44;;;;;;;7.10;2.27;;;0.30;99.90;;;;;;4994937;28;20270;-64
2021/12/03 01:57:10;;;;;;;21.37;7.07;;;0.30;99.90;;;;;;4977813;28;20299;-64
2021/12/03 01:59:35;;;;;;;8.47;3.60;;;0.20;99.90;;;;;;4973767;28;20199;-64
2021/12/03 02:02:01;;;;;;;4.93;2.70;;;0.20;99.90;;;;;;4977901;28;20206;-64
2021/12/03 02:04:27;;;;;;;7.03;3.00;;;0.20;99.90;;;;;;4986044;28;20200;-64
2021/12/03 02:06:53;;;;;;;6.30;3.20;;;0.20;99.90;;;;;;4981996;28;20199;-64
2021/12/03 02:09:18;;;;;;;10.37;3.70;;;0.20;99.90;;;;;;4977199;28;20259;-64
2021/12/03 02:11:44;;;;;;;6.70;4.20;;;0.20;99.90;;;;;;4979195;28;20612;-64
2021/12/03 02:14:10;;;;;;;6.73;2.80;;;0.20;99.90;;;;;;4970872;28;20579;-64
2021/12/03 02:16:37;;;;;;;6.80;3.60;;;0.10;99.90;;;;;;4968197;28;20216;-64
2021/12/03 02:19:03;;;;;;;4.77;2.67;;;0.10;99.90;;;;;;4976136;28;20215;-64
2021/12/03 02:21:29;;;;;;;8.70;2.90;;;0.10;99.90;;;;;;4972375;28;21123;-64
2021/12/03 02:23:56;;;;;;;12.73;3.33;;;0.10;99.90;;;;;;4977052;28;20435;-64
2021/12/03 02:26:22;;;;;;;6.70;3.30;;;0.20;99.90;;;;;;4980433;28;20271;-64
2021/12/03 02:28:49;;;;;;;20.63;3.90;;;0.20;99.90;;;;;;4970936;28;20522;-64
2021/12/03 02:31:19;;;;;;;5.30;3.27;;;0.10;99.90;;;;;;4973014;28;20773;-64
2021/12/03 02:33:45;;;;;;;6.40;3.23;;;0.10;99.90;;;;;;4975500;28;20437;-64
2021/12/03 02:36:11;;;;;;;4.97;3.37;;;0.10;99.90;;;;;;4975636;28;20513;-64
2021/12/03 02:38:37;;;;;;;5.30;2.73;;;0.10;99.90;;;;;;4975043;28;20466;-64
2021/12/03 02:41:04;;;;;;;11.63;3.60;;;0.10;99.90;;;;;;4972506;28;20531;-64
2021/12/03 02:43:30;;;;;;;6.77;4.03;;;0.10;99.90;;;;;;4973866;28;20235;-64
2021/12/03 02:45:57;;;;;;;4.30;2.80;;;0.10;99.90;;;;;;4980371;28;20427;-64
2021/12/03 02:48:24;;;;;;;8.40;4.00;;;0.10;99.90;;;;;;4976927;28;20449;-64
2021/12/03 02:50:50;;;;;;;8.10;4.13;;;0.20;99.90;;;;;;4975511;28;20458;-64
2021/12/03 02:53:16;;;;;;;9.00;3.17;;;0.20;99.90;;;;;;4987151;28;20434;-64
2021/12/03 02:55:43;;;;;;;5.77;3.37;;;0.20;99.90;;;;;;4977963;28;20474;-64
2021/12/03 02:58:09;;;;;;;9.30;3.90;;;0.20;99.90;;;;;;4981242;28;20445;-64
2021/12/03 03:00:36;;;;;;;7.33;2.70;;;0.20;99.90;;;;;;4982569;28;21013;-64
2021/12/03 03:03:01;;;;;;;9.90;3.30;;;0.20;99.90;;;;;;4976350;28;21068;-64
2021/12/03 03:05:28;;;;;;;6.77;2.70;;;0.20;99.90;;;;;;4977415;28;20543;-64
2021/12/03 03:07:54;;;;;;;5.03;2.93;;;0.20;99.90;;;;;;4978402;28;20220;-64
2021/12/03 03:10:27;;;;;;;4.57;2.80;;;0.20;99.90;;;;;;4971596;28;20571;-64
2021/12/03 03:12:53;;;;;;;10.13;3.47;;;0.20;99.90;;;;;;4978072;28;20462;-64
2021/12/03 03:15:19;;;;;;;5.60;3.33;;;0.20;99.90;;;;;;4971193;28;21161;-64
2021/12/03 03:17:45;;;;;;;5.90;2.90;;;0.20;99.90;;;;;;4971873;28;20350;-64
2021/12/03 03:20:11;;;;;;;8.93;2.73;;;0.20;99.90;;;;;;4972345;28;20192;-64
2021/12/03 03:22:38;;;;;;;6.80;4.30;;;0.20;99.90;;;;;;4981702;28;20428;-64
2021/12/03 03:25:06;;;;;;;6.43;3.37;;;0.20;99.90;;;;;;4980679;28;20749;-64
2021/12/03 03:27:31;;;;;;;6.70;3.23;;;0.30;99.90;;;;;;4971149;28;20432;-64
2021/12/03 03:29:58;;;;;;;9.17;3.80;;;0.20;99.90;;;;;;4971978;28;20779;-64
2021/12/03 03:32:24;;;;;;;9.10;3.43;;;0.30;99.90;;;;;;4971664;28;20235;-64
2021/12/03 03:34:50;;;;;;;6.60;3.60;;;0.20;99.90;;;;;;4972167;28;20454;-64
2021/12/03 03:37:16;;;;;;;8.70;3.10;;;0.30;99.90;;;;;;4988639;28;20474;-64
2021/12/03 03:39:43;;;;;;;6.30;3.03;;;0.30;99.90;;;;;;4983126;28;20193;-64
2021/12/03 03:42:09;;;;;;;5.60;2.97;;;0.30;99.90;;;;;;4979931;28;20427;-64
2021/12/03 03:44:35;;;;;;;8.20;3.70;;;0.30;99.90;;;;;;4986312;28;20426;-64
2021/12/03 03:47:02;;;;;;;6.30;3.27;;;0.30;99.90;;;;;;4979883;28;20194;-64
2021/12/03 03:49:29;;;;;;;6.07;3.30;;;0.30;99.90;;;;;;4974966;28;20527;-64
2021/12/03 03:51:56;;;;;;;10.70;4.67;;;0.30;99.90;;;;;;4980070;28;20916;-64
2021/12/03 03:54:22;;;;;;;3.47;2.23;;;0.30;99.90;;;;;;4971685;28;20943;-64
2021/12/03 03:56:48;;;;;;;7.20;3.47;;;0.30;99.90;;;;;;4969908;28;21245;-64
2021/12/03 03:59:17;;;;;;;9.03;3.20;;;0.30;99.90;;;;;;4970846;28;20512;-64
2021/12/03 04:01:51;;;;;;;9.60;3.30;;;0.20;99.90;;;;;;4970638;28;20523;-64
2021/12/03 04:04:17;;;;;;;5.77;3.10;;;0.20;99.90;;;;;;4980686;28;20898;-64
2021/12/03 04:06:43;;;;;;;5.83;2.60;;;0.20;99.90;;;;;;4973332;28;20498;-64
2021/12/03 04:09:10;;;;;;;8.90;4.10;;;0.20;99.90;;;;;;4970602;28;20192;-64
2021/12/03 04:11:37;;;;;;;3.57;2.07;;;0.20;99.90;;;;;;4970067;28;20522;-64
2021/12/03 04:14:02;;;;;;;5.70;3.20;;;0.20;99.90;;;;;;4970831;28;20432;-64
2021/12/03 04:16:30;;;;;;;6.77;2.93;;;0.20;99.90;;;;;;4970193;28;20494;-64
2021/12/03 04:18:57;;;;;;;6.63;2.93;;;0.20;99.90;;;;;;4980829;28;20270;-64
2021/12/03 04:21:23;;;;;;;6.23;2.73;;;0.20;99.90;;;;;;4977394;28;20419;-64
2021/12/03 04:23:49;;;;;;;4.60;2.53;;;0.30;99.90;;;;;;4970746;28;21141;-65
2021/12/03 04:26:14;;;;;;;6.43;3.00;;;0.20;99.90;;;;;;4974010;28;20432;-64
2021/12/03 04:28:40;;;;;;;4.90;2.57;;;0.20;99.90;;;;;;4970191;28;20188;-64
2021/12/03 04:31:06;;;;;;;6.03;2.73;;;0.20;99.90;;;;;;4970410;28;20195;-64
2021/12/03 04:33:32;;;;;;;9.53;3.43;;;0.20;99.90;;;;;;4985539;28;20224;-64
2021/12/03 04:35:57;;;;;;;4.50;2.57;;;0.20;99.90;;;;;;4986350;28;20251;-64
2021/12/03 04:38:23;;;;;;;7.67;3.63;;;0.20;99.90;;;;;;4976610;28;20959;-64
2021/12/03 04:40:49;;;;;;;5.50;3.10;;;0.20;99.90;;;;;;4985213;28;20176;-63
2021/12/03 04:43:15;;;;;;;6.83;2.80;;;0.20;99.90;;;;;;5003610;28;20189;-64
2021/12/03 04:45:41;;;;;;;7.00;3.07;;;0.20;99.90;;;;;;5006358;28;20187;-64
2021/12/03 04:48:07;;;;;;;6.27;2.90;;;0.20;99.90;;;;;;5000129;28;20200;-64
2021/12/03 04:50:42;;;;;;;6.50;2.67;;;0.20;99.90;;;;;;4988481;28;20454;-64
2021/12/03 04:53:08;;;;;;;7.50;3.57;;;0.20;99.90;;;;;;4974861;28;20469;-64
2021/12/03 04:55:35;;;;;;;6.03;3.67;;;0.20;99.90;;;;;;4985206;28;20509;-64
2021/12/03 04:58:01;;;;;;;5.70;2.97;;;0.20;99.90;;;;;;4982609;28;20441;-64
2021/12/03 05:00:51;;;;;;;5.80;3.37;;;0.10;99.90;;;;;;4977452;28;20545;-64
2021/12/03 05:03:17;;;;;;;8.03;3.70;;;0.20;99.90;;;;;;4964327;28;21004;-64
2021/12/03 05:05:49;;;;;;;5.73;2.80;;;0.20;99.90;;;;;;4977049;28;20474;-64
2021/12/03 05:08:15;;;;;;;5.20;2.40;;;0.20;99.90;;;;;;4978412;28;20900;-64
2021/12/03 05:10:42;;;;;;;3.80;2.20;;;0.20;99.90;;;;;;4982410;28;20438;-64
2021/12/03 05:13:20;;;;;;;7.37;3.70;;;0.20;99.90;;;;;;4970096;28;20231;-64
2021/12/03 05:15:46;;;;;;;4.63;2.87;;;0.10;99.90;;;;;;4974838;28;20470;-64
2021/12/03 05:18:15;;;;;;;4.73;2.43;;;0.10;99.90;;;;;;4981745;28;20439;-64
2021/12/03 05:20:42;;;;;;;7.27;3.70;;;0.20;99.90;;;;;;4977576;28;20451;-64
2021/12/03 05:23:09;;;;;;;7.07;2.83;;;0.20;99.90;;;;;;4986988;28;20977;-64
2021/12/03 05:25:35;;;;;;;5.60;2.50;;;0.10;99.90;;;;;;4987846;28;20896;-64
2021/12/03 05:28:02;;;;;;;6.07;3.07;;;0.10;99.90;;;;;;4971812;28;20458;-64
2021/12/03 05:30:28;;;;;;;5.17;2.43;;;0.10;99.90;;;;;;4978559;28;20437;-64
2021/12/03 05:32:54;;;;;;;4.00;2.70;;;0.10;99.90;;;;;;4986751;28;20423;-64
2021/12/03 05:35:20;;;;;;;6.37;3.13;;;0.10;99.90;;;;;;4982696;28;20766;-63
2021/12/03 05:37:46;;;;;;;5.40;2.13;;;0.10;99.90;;;;;;4979825;28;20440;-64
2021/12/03 05:40:13;;;;;;;4.20;2.30;;;0.10;99.90;;;;;;4974849;28;20188;-64
2021/12/03 05:42:39;;;;;;;7.87;2.90;;;0.10;99.90;;;;;;4976043;28;20445;-64
2021/12/03 05:45:08;;;;;;;6.07;2.57;;;0.10;99.90;;;;;;4970424;28;20427;-65
2021/12/03 05:47:33;;;;;;;11.73;2.57;;;0.10;99.90;;;;;;4969919;28;20192;-65
2021/12/03 05:49:59;;;;;;;6.30;3.13;;;0.00;99.90;;;;;;4975553;28;20991;-64
2021/12/03 05:52:25;;;;;;;5.63;2.73;;;0.00;99.90;;;;;;4971757;28;20196;-65
2021/12/03 05:54:51;;;;;;;5.00;2.33;;;0.00;99.90;;;;;;4978132;28;20191;-64
2021/12/03 05:57:17;;;;;;;6.00;3.10;;;0.00;99.90;;;;;;4973722;28;20215;-64
2021/12/03 05:59:43;;;;;;;8.03;3.30;;;0.10;99.90;;;;;;4976524;28;20424;-64
2021/12/03 06:02:08;;;;;;;5.20;2.90;;;0.00;99.90;;;;;;4970448;28;20796;-64
2021/12/03 06:04:34;;;;;;;6.27;3.70;;;0.00;99.90;;;;;;4983702;28;20234;-65
2021/12/03 06:07:00;;;;;;;9.20;2.83;;;-0.10;99.90;;;;;;4984591;28;20196;-65
2021/12/03 06:09:26;;;;;;;4.87;3.00;;;-0.10;99.90;;;;;;4973353;28;20219;-64
2021/12/03 06:11:51;;;;;;;6.10;3.37;;;0.00;99.90;;;;;;4988477;28;20218;-64
2021/12/03 06:14:17;;;;;;;19.40;4.50;;;0.00;99.90;;;;;;4983757;28;20696;-65
2021/12/03 06:16:43;;;;;;;13.40;5.30;;;0.00;99.90;;;;;;4970183;28;20609;-64
2021/12/03 06:19:09;;;;;;;13.60;5.67;;;0.00;99.90;;;;;;4971684;28;20192;-64
2021/12/03 06:21:35;;;;;;;10.10;3.50;;;0.00;99.90;;;;;;4982819;28;20438;-64
2021/12/03 06:24:00;;;;;;;7.63;3.57;;;0.00;99.90;;;;;;4976607;28;20198;-64
2021/12/03 06:26:26;;;;;;;8.23;3.63;;;-0.10;99.90;;;;;;4971679;28;20200;-64
2021/12/03 06:28:51;;;;;;;8.20;3.30;;;-0.10;99.90;;;;;;4968621;28;20284;-66
2021/12/03 06:31:17;;;;;;;6.37;2.90;;;-0.10;99.90;;;;;;4971859;28;20578;-66
2021/12/03 06:33:43;;;;;;;5.13;2.80;;;-0.10;99.90;;;;;;4968992;28;20272;-66
2021/12/03 06:36:09;;;;;;;10.00;3.90;;;-0.10;99.90;;;;;;4973369;28;20250;-66
2021/12/03 06:38:38;;;;;;;10.20;4.60;;;-0.20;99.90;;;;;;4988667;28;20208;-66
2021/12/03 06:41:06;;;;;;;6.60;3.27;;;-0.20;99.90;;;;;;4979519;28;20230;-66
2021/12/03 06:43:32;;;;;;;5.33;2.90;;;-0.20;99.90;;;;;;4980416;28;20419;-66
2021/12/03 06:45:57;;;;;;;7.83;3.47;;;-0.10;99.90;;;;;;4968273;28;20483;-66
2021/12/03 06:48:23;;;;;;;5.93;3.00;;;-0.20;99.90;;;;;;4968777;28;20458;-66
2021/12/03 06:50:49;;;;;;;4.73;2.90;;;-0.30;99.90;;;;;;4968677;28;20196;-65
2021/12/03 06:53:17;;;;;;;10.33;4.17;;;-0.30;99.90;;;;;;4968502;28;20180;-66
2021/12/03 06:58:09;;;;;;;6.57;2.60;;;-0.50;99.90;;;;;;4972578;28;20495;-66
2021/12/03 07:00:35;;;;;;;5.97;2.60;;;-0.50;99.90;;;;;;4975218;28;20443;-66
2021/12/03 07:03:01;;;;;;;4.23;2.53;;;-0.60;99.90;;;;;;4976159;28;20989;-66
2021/12/03 07:05:27;;;;;;;6.03;2.23;;;-0.60;99.90;;;;;;4979776;28;20538;-66
2021/12/03 07:07:52;;;;;;;8.57;2.70;;;-0.50;99.90;;;;;;4968195;28;20681;-66
2021/12/03 07:10:18;;;;;;;8.53;3.60;;;-0.50;99.90;;;;;;4967469;28;20193;-67
2021/12/03 07:12:44;;;;;;;11.53;5.27;;;-0.50;99.90;;;;;;4978999;28;20291;-66
2021/12/03 07:15:09;;;;;;;8.83;4.00;;;-0.50;99.90;;;;;;4976659;28;20287;-66
2021/12/03 07:17:35;;;;;;;14.73;5.53;;;-0.50;99.90;;;;;;4970731;28;20219;-66
2021/12/03 07:20:01;;;;;;;13.57;5.30;;;-0.50;99.90;;;;;;4971838;28;20227;-67
2021/12/03 07:22:28;;;;;;;21.57;6.13;;;-0.50;99.90;;;;;;4978027;28;20200;-67
2021/12/03 07:24:54;;;;;;;13.70;5.47;;;-0.50;99.90;;;;;;4982979;28;20490;-66
2021/12/03 07:27:21;;;;;;;10.13;3.40;;;-0.50;99.90;;;;;;4982962;28;20445;-67
2021/12/03 07:29:48;;;;;;;8.30;3.00;;;-0.50;99.90;;;;;;4980880;28;20439;-66
2021/12/03 07:32:19;;;;;;;6.97;2.50;;;-0.40;99.90;;;;;;4971423;28;20481;-66
2021/12/03 07:34:45;;;;;;;3.80;1.93;;;-0.40;99.90;;;;;;4971355;28;20428;-66
2021/12/03 07:37:11;;;;;;;4.50;2.23;;;-0.40;99.90;;;;;;4970837;28;20506;-67
2021/12/03 07:39:37;;;;;;;5.37;2.27;;;-0.40;99.90;;;;;;4977352;28;20463;-66
2021/12/03 07:42:04;;;;;;;3.93;2.03;;;-0.40;99.90;;;;;;4971984;28;20208;-66
2021/12/03 07:44:31;;;;;;;2.53;1.80;;;-0.40;99.90;;;;;;4975168;28;20828;-67
2021/12/03 07:46:57;;;;;;;3.10;1.93;;;-0.40;99.90;;;;;;4970657;28;20432;-66
2021/12/03 07:49:24;;;;;;;3.90;1.97;;;-0.40;99.90;;;;;;4971232;28;20431;-67
2021/12/03 07:51:50;;;;;;;4.10;2.00;;;-0.40;99.90;;;;;;4976789;28;20211;-66
2021/12/03 07:54:17;;;;;;;4.13;1.50;;;-0.40;99.90;;;;;;4982128;28;20486;-67
2021/12/03 07:56:43;;;;;;;2.63;1.23;;;-0.30;99.90;;;;;;4988026;28;20471;-67
2021/12/03 07:59:08;;;;;;;2.80;1.60;;;-0.40;99.90;;;;;;4981892;28;20448;-67
2021/12/03 08:01:34;;;;;;;1.97;1.33;;;-0.40;99.90;;;;;;4981423;28;20618;-66
2021/12/03 08:04:00;;;;;;;6.10;2.00;;;-0.40;99.90;;;;;;4977580;28;20246;-66
2021/12/03 08:06:26;;;;;;;2.33;1.57;;;-0.30;99.90;;;;;;4970661;28;20223;-66
2021/12/03 08:08:51;;;;;;;4.07;1.50;;;-0.30;99.90;;;;;;4975576;28;20192;-67
2021/12/03 08:11:17;;;;;;;2.77;1.60;;;-0.30;99.90;;;;;;4972488;28;20192;-66
2021/12/03 08:13:43;;;;;;;4.27;2.10;;;-0.30;99.90;;;;;;4970218;28;20188;-66
2021/12/03 08:16:09;;;;;;;1.60;1.10;;;-0.20;99.90;;;;;;4977894;28;20286;-66
2021/12/03 08:18:34;;;;;;;9.20;1.80;;;-0.10;99.90;;;;;;4984708;28;20207;-67
2021/12/03 08:21:02;;;;;;;2.00;1.33;;;0.00;99.90;;;;;;4984937;28;20462;-66
2021/12/03 08:23:28;;;;;;;3.20;1.00;;;0.00;99.90;;;;;;4983219;28;20184;-67
2021/12/03 08:25:54;;;;;;;1.70;0.83;;;0.10;99.90;;;;;;4986966;28;20438;-65
2021/12/03 08:28:20;;;;;;;2.20;1.30;;;0.00;99.90;;;;;;4987223;28;20517;-65
2021/12/03 08:30:46;;;;;;;1.70;1.00;;;0.00;99.90;;;;;;4982105;28;20192;-66
2021/12/03 08:33:12;;;;;;;2.00;1.17;;;0.10;99.90;;;;;;4984485;28;20192;-66
2021/12/03 08:35:37;;;;;;;5.97;1.10;;;0.10;99.90;;;;;;4984607;28;20594;-66
2021/12/03 08:38:04;;;;;;;2.70;1.17;;;0.30;99.90;;;;;;4984324;28;20542;-66
2021/12/03 08:40:29;;;;;;;3.50;1.40;;;0.40;99.90;;;;;;4988005;28;20184;-66
2021/12/03 08:42:55;;;;;;;3.73;1.67;;;0.50;99.90;;;;;;4986513;28;20902;-66
2021/12/03 08:45:21;;;;;;;9.10;1.93;;;0.50;99.90;;;;;;4981762;28;20187;-67
2021/12/03 08:47:57;;;;;;;4.73;1.57;;;0.60;99.90;;;;;;4986014;28;20447;-66
2021/12/03 08:50:29;;;;;;;3.40;1.37;;;0.60;99.90;;;;;;4981585;28;20192;-66
2021/12/03 08:55:41;;;;;;;2.73;1.17;;;0.70;99.90;;;;;;4978204;28;20554;-66
2021/12/03 08:58:09;;;;;;;3.57;1.47;;;0.60;99.90;;;;;;4985200;28;20457;-66
2021/12/03 09:00:36;;;;;;;3.13;1.50;;;0.70;99.90;;;;;;4983414;28;20411;-66
2021/12/03 09:03:04;;;;;;;6.10;1.70;;;0.70;99.90;;;;;;4985962;28;20574;-66
2021/12/03 09:05:31;;;;;;;2.70;1.23;;;0.70;99.90;;;;;;4985012;28;20423;-66
2021/12/03 09:07:57;;;;;;;4.07;1.20;;;0.80;99.90;;;;;;4983609;28;21524;-65
2021/12/03 09:10:23;;;;;;;2.10;1.30;;;0.80;99.90;;;;;;4981044;28;20435;-65
2021/12/03 09:12:49;;;;;;;2.20;1.10;;;0.80;99.90;;;;;;4984941;28;20434;-66
2021/12/03 09:15:17;;;;;;;4.80;1.87;;;0.90;99.90;;;;;;4984379;28;20268;-66
2021/12/03 09:23:03;;;;;;;2.90;1.20;;;0.90;99.90;;;;;;4984066;28;20423;-65
2021/12/03 09:25:38;;;;;;;1.77;1.00;;;0.80;99.90;;;;;;4981193;28;20855;-66
2021/12/03 09:28:07;;;;;;;3.57;1.50;;;0.90;99.90;;;;;;4982781;28;20485;-67
2021/12/03 09:30:37;;;;;;;2.80;1.47;;;1.00;99.90;;;;;;4979718;28;21248;-66
2021/12/03 09:33:06;;;;;;;5.33;2.63;;;1.10;99.90;;;;;;4985800;28;20434;-67
2021/12/03 09:35:35;;;;;;;1.90;1.40;;;1.20;99.90;;;;;;4980759;28;20487;-66
2021/12/03 09:38:01;;;;;;;10.30;1.97;;;1.30;99.90;;;;;;4979791;28;20474;-67
2021/12/03 09:40:30;;;;;;;3.90;1.90;;;1.40;99.90;;;;;;4982891;28;20423;-66
2021/12/03 09:42:56;;;;;;;2.17;1.43;;;1.50;99.90;;;;;;4983065;28;20171;-66
2021/12/03 09:45:22;;;;;;;2.90;1.43;;;1.40;99.90;;;;;;4984901;28;20411;-66
2021/12/03 09:47:49;;;;;;;2.60;1.47;;;1.40;99.90;;;;;;4985076;28;20440;-66
2021/12/03 09:50:15;;;;;;;5.27;1.43;;;1.60;99.90;;;;;;4980904;28;20184;-65
2021/12/03 09:55:28;;;;;;;3.77;1.40;;;1.60;99.90;;;;;;4982185;28;20190;-66
2021/12/03 09:58:10;;;;;;;2.40;1.43;;;1.70;99.70;;;;;;4985100;28;20422;-66
2021/12/03 10:01:04;;;;;;;3.27;1.40;;;1.70;99.80;;;;;;4981988;28;20426;-65
2021/12/03 10:15:24;;;;;;;2.60;1.53;;;1.60;99.90;;;;;;4977873;28;20459;-65
2021/12/03 10:20:47;;;;;;;2.30;1.50;;;1.80;99.90;;;;;;4968804;28;20908;-65
2021/12/03 10:27:05;;;;;;;6.10;1.80;;;1.70;99.90;;;;;;4981493;28;20421;-65
2021/12/03 10:29:33;;;;;;;3.20;1.93;;;1.70;99.90;;;;;;4980787;28;20442;-65
2021/12/03 10:57:13;;;;;;;12.63;2.13;;;2.10;99.90;;;;;;4971600;28;20562;-65
2021/12/03 10:59:45;;;;;;;3.03;1.50;;;2.20;99.90;;;;;;4980188;28;20443;-65
2021/12/03 11:08:39;;;;;;;4.43;1.70;;;2.20;99.90;;;;;;4971646;28;20519;-64
2021/12/03 12:55:45;;;;;;;;;;;;;;;;;;;;;
2021/12/03 13:10:37;;;;;;;2.53;1.20;;;2.90;98.30;;;;;;4973466;28;20427;-64
2021/12/03 14:32:01;;;;;;;5.17;1.47;;;2.00;99.90;;;;;;4983535;28;20462;-63
2021/12/03 14:37:55;;;;;;;1.90;0.97;;;2.00;99.90;;;;;;4980306;28;20982;-64
2021/12/03 14:40:52;;;;;;;5.60;1.33;;;2.00;99.90;;;;;;4981157;28;21112;-64
2021/12/03 14:46:37;;;;;;;1.40;0.80;;;1.90;99.80;;;;;;4989970;28;21425;-65
2021/12/03 14:57:16;;;;;;;4.10;1.20;;;1.80;99.90;;;;;;4971626;28;20467;-66
2021/12/03 14:59:55;;;;;;;3.13;1.50;;;1.80;99.90;;;;;;4984059;28;20923;-66
2021/12/03 15:05:21;;;;;;;2.23;1.00;;;1.70;99.90;;;;;;4981808;28;20434;-64
2021/12/03 15:07:51;;;;;;;2.47;1.23;;;1.70;99.70;;;;;;4979946;28;20462;-64
2021/12/03 15:14:06;;;;;;;1.60;0.93;;;1.60;99.70;;;;;;4989301;28;20430;-64
2021/12/03 15:19:11;;;;;;;3.60;1.27;;;1.50;99.90;;;;;;4986668;28;20458;-65
2021/12/03 15:30:03;;;;;;;2.40;0.93;;;1.30;99.90;;;;;;4983705;28;20899;-63
2021/12/03 15:37:57;;;;;;;2.37;1.03;;;1.20;99.90;;;;;;4979135;28;20602;-63
2021/12/03 15:57:14;;;;;;;3.53;1.50;;;1.00;99.90;;;;;;4984617;28;21272;-64
2021/12/03 16:05:34;;;;;;;3.43;1.70;;;1.00;99.90;;;;;;4982782;28;20497;-63
2021/12/03 16:10:59;;;;;;;3.20;2.00;;;0.90;99.90;;;;;;4981991;28;20450;-63
2021/12/03 16:26:05;;;;;;;4.33;2.33;;;0.80;99.90;;;;;;4990864;28;20467;-66
2021/12/03 16:45:17;;;;;;;4.20;2.13;;;0.80;99.90;;;;;;4979389;28;20421;-65
2021/12/03 16:53:19;;;;;;;3.83;1.70;;;0.80;99.90;;;;;;4969110;28;20538;-65
2021/12/03 16:55:55;;;;;;;7.80;2.20;;;0.90;99.90;;;;;;4986231;28;20436;-65
2021/12/03 16:58:21;;;;;;;7.10;2.67;;;0.90;99.90;;;;;;4979440;28;20459;-66
2021/12/03 17:00:57;;;;;;;4.17;1.80;;;0.90;99.90;;;;;;4975067;28;20543;-65
2021/12/03 17:03:32;;;;;;;2.60;1.17;;;0.90;99.90;;;;;;4987911;28;20179;-65
2021/12/03 17:07:01;;;;;;;2.70;1.67;;;0.90;99.90;;;;;;4977075;28;20450;-65
2021/12/03 17:29:41;;;;;;;3.20;1.57;;;0.90;99.90;;;;;;4990130;28;21082;-65
2021/12/03 17:54:12;;;;;;;8.83;2.50;;;0.80;99.90;;;;;;4971013;28;20438;-65
2021/12/03 17:56:45;;;;;;;2.77;1.57;;;0.70;99.90;;;;;;4967907;28;20909;-66
2021/12/03 17:59:25;;;;;;;8.53;2.83;;;0.70;99.90;;;;;;4971268;28;20451;-64
2021/12/03 18:01:55;;;;;;;9.33;2.60;;;0.70;99.90;;;;;;4967352;28;20418;-64
2021/12/03 18:04:38;;;;;;;6.10;2.23;;;0.70;99.90;;;;;;4968554;28;20427;-64
2021/12/03 18:10:03;;;;;;;4.50;2.03;;;0.70;99.90;;;;;;4983726;28;20485;-64
2021/12/03 18:52:53;;;;;;;7.27;2.87;;;1.00;99.90;;;;;;4968890;28;20852;-63
2021/12/03 18:58:18;;;;;;;5.37;2.87;;;1.00;99.90;;;;;;4948782;28;20452;-63
2021/12/03 19:00:46;;;;;;;5.27;3.40;;;0.90;99.90;;;;;;4970055;28;20444;-62
2021/12/03 19:03:26;;;;;;;5.47;2.60;;;1.00;99.90;;;;;;4972097;28;20787;-63
2021/12/03 19:08:35;;;;;;;4.70;3.00;;;1.00;99.90;;;;;;4983672;28;20771;-64
2021/12/03 19:11:20;;;;;;;2.80;2.00;;;1.00;99.90;;;;;;4978809;28;20961;-64
2021/12/03 19:13:46;;;;;;;3.70;1.87;;;1.10;99.90;;;;;;4979730;28;20518;-65
2021/12/03 19:16:15;;;;;;;4.00;2.20;;;1.00;99.90;;;;;;4994652;28;20492;-65
2021/12/03 19:18:45;;;;;;;18.40;8.53;;;1.00;99.90;;;;;;4984509;28;20185;-65
2021/12/03 19:21:20;;;;;;;4.13;2.37;;;1.00;99.90;;;;;;4980825;28;20481;-64
2021/12/03 19:23:46;;;;;;;21.07;6.20;;;1.00;99.90;;;;;;4985659;28;20426;-65
2021/12/03 19:26:12;;;;;;;6.07;3.00;;;1.00;99.90;;;;;;4991323;28;20440;-63
2021/12/03 19:28:39;;;;;;;8.10;3.90;;;1.00;99.90;;;;;;4974373;28;20439;-64
2021/12/03 19:31:06;;;;;;;3.90;1.80;;;1.10;99.90;;;;;;4981496;28;20454;-65
2021/12/03 19:33:36;;;;;;;7.00;4.60;;;1.10;99.90;;;;;;4982498;28;20432;-65
2021/12/03 19:36:03;;;;;;;4.30;1.97;;;1.00;99.90;;;;;;5000044;28;20485;-65
2021/12/03 19:38:30;;;;;;;5.90;3.87;;;1.10;99.90;;;;;;4991155;28;20537;-65
2021/12/03 19:41:03;;;;;;;8.60;4.43;;;1.10;99.90;;;;;;4981275;28;20436;-65
2021/12/03 19:43:41;;;;;;;8.87;5.00;;;1.10;99.90;;;;;;4989304;28;20435;-65
2021/12/03 19:46:07;;;;;;;8.60;3.63;;;1.10;99.90;;;;;;4984048;28;21047;-65
2021/12/03 19:48:49;;;;;;;4.80;2.40;;;1.10;99.90;;;;;;4970859;28;20530;-64
2021/12/03 19:51:16;;;;;;;4.13;2.07;;;1.10;99.90;;;;;;4972492;28;20940;-64
2021/12/03 19:54:16;;;;;;;8.20;3.40;;;1.10;99.90;;;;;;4973872;28;20451;-65
2021/12/03 19:56:35;;;;;;;4.90;2.90;;;1.10;99.90;;;;;;4982242;28;20471;-65
2021/12/03 19:59:02;;;;;;;5.20;3.10;;;1.00;99.90;;;;;;4990269;28;20439;-66
2021/12/03 20:01:32;;;;;;;5.33;2.40;;;1.10;99.90;;;;;;4995609;28;20442;-65
2021/12/03 20:03:58;;;;;;;3.17;2.20;;;1.10;99.90;;;;;;4984733;28;20439;-65
2021/12/03 20:06:24;;;;;;;4.70;1.90;;;1.10;99.90;;;;;;4977372;28;20451;-65
2021/12/03 20:08:53;;;;;;;5.90;2.40;;;1.10;99.80;;;;;;4981415;28;20438;-65
2021/12/03 20:11:22;;;;;;;4.73;2.20;;;1.10;99.90;;;;;;4974632;28;20443;-64
2021/12/03 20:13:50;;;;;;;5.20;2.10;;;1.10;99.90;;;;;;4975788;28;20436;-64
2021/12/03 20:18:53;;;;;;;5.27;2.90;;;1.10;99.90;;;;;;4976265;28;20427;-65
2021/12/03 20:21:21;;;;;;;4.90;2.30;;;1.00;99.90;;;;;;4993016;28;20449;-64
2021/12/03 20:29:21;;;;;;;2.87;2.03;;;1.10;99.90;;;;;;4923993;29;20461;-64
2021/12/03 20:31:58;;;;;;;4.20;2.30;;;1.10;99.70;;;;;;4951466;28;20200;-65
2021/12/03 20:34:34;;;;;;;3.63;1.80;;;1.00;99.70;;;;;;4971034;28;20810;-65
2021/12/03 20:39:33;;;;;;;5.90;2.53;;;1.00;99.50;;;;;;4984867;28;20594;-64